Weather at Tipella Airport

Public forecast

Using degrees Celsius for public forecast. Weather courtesy of forecast.io.

Closest aviation weather report (METAR) to Tipella Airport

Report is more than 6 hours old.

Closest report is Hope Airport / FVRD Regional Airpark, 34.4 nm (63.7 km) SE.

2022/11/14 15:00 (retrieved 2 years ago)

CYHE 141500Z AUTO 11012G17KT 9SM CLR 01/M02 A3051 RMK SLP335

Closest aviation forecast (TAF) to Tipella Airport

Forecast is more than 12 hours old.

Closest forecast is Abbotsford International Airport, 43.8 nm (81.1 km) S.

2023/02/22 18:42 (retrieved 1 year ago)

TAF CYXX 221740Z 2218/2318 05018G28KT P6SM BKN050 BKN100 FM222000 04018G28KT P6SM BKN080 FM230600 04020G30KT P6SM BKN100 BECMG 2308/2310 SCT090 RMK NXT FCST BY 230000Z